createdAt,value
2018-09-06T00:02:05.986Z,19.90
2018-09-06T00:04:34.671Z,19.90
2018-09-06T00:07:03.384Z,19.90
2018-09-06T00:09:32.078Z,19.80
2018-09-06T00:12:00.855Z,19.70
2018-09-06T00:14:29.585Z,19.70
2018-09-06T00:16:58.318Z,19.60
2018-09-06T00:19:27.060Z,19.70
2018-09-06T00:21:55.728Z,19.60
2018-09-06T00:24:24.457Z,19.60
2018-09-06T00:26:53.190Z,19.60
2018-09-06T00:29:21.957Z,19.70
2018-09-06T00:31:50.646Z,19.50
2018-09-06T00:34:19.408Z,19.50
2018-09-06T00:36:48.096Z,19.40
2018-09-06T00:39:16.855Z,19.30
2018-09-06T00:41:45.529Z,19.20
2018-09-06T00:44:14.289Z,19.20
2018-09-06T00:46:43.018Z,19.20
2018-09-06T00:49:11.748Z,19.20
2018-09-06T00:51:40.465Z,19.30
2018-09-06T00:54:09.165Z,19.30
2018-09-06T00:56:37.929Z,19.30
2018-09-06T00:59:06.640Z,19.20
2018-09-06T01:01:35.408Z,19.30
2018-09-06T01:04:04.160Z,19.20
2018-09-06T01:06:32.893Z,19.20
2018-09-06T01:09:01.558Z,19.10
2018-09-06T01:11:34.197Z,19.10
2018-09-06T01:14:06.526Z,19.10
2018-09-06T01:16:37.092Z,19.00
2018-09-06T01:19:08.089Z,19.00
2018-09-06T01:21:40.079Z,18.90
2018-09-06T01:24:13.879Z,19.00
2018-09-06T01:26:46.951Z,19.00
2018-09-06T01:29:21.374Z,19.00
2018-09-06T01:31:56.665Z,19.00
2018-09-06T01:34:31.018Z,18.90
2018-09-06T01:37:09.674Z,18.90
2018-09-06T01:39:42.975Z,18.90
2018-09-06T01:42:17.240Z,18.90
2018-09-06T01:44:50.138Z,18.90
2018-09-06T01:47:27.294Z,18.90
2018-09-06T01:50:00.055Z,18.90
2018-09-06T01:52:33.191Z,18.80
2018-09-06T01:55:06.260Z,18.70
2018-09-06T01:57:40.330Z,18.70
2018-09-06T02:00:15.491Z,18.80
2018-09-06T02:02:49.797Z,18.60
2018-09-06T02:05:27.033Z,18.60
2018-09-06T02:08:04.683Z,18.60
2018-09-06T02:10:37.907Z,18.60
2018-09-06T02:13:12.446Z,18.60
2018-09-06T02:15:49.621Z,18.60
2018-09-06T02:18:25.151Z,18.60
2018-09-06T02:21:00.033Z,18.60
2018-09-06T02:23:36.270Z,18.50
2018-09-06T02:26:10.227Z,18.50
2018-09-06T02:28:44.395Z,18.50
2018-09-06T02:31:17.404Z,18.60
2018-09-06T02:33:51.326Z,18.60
2018-09-06T02:36:25.401Z,18.50
2018-09-06T02:38:59.250Z,18.50
2018-09-06T02:41:43.721Z,18.60
2018-09-06T02:44:15.293Z,18.50
2018-09-06T02:46:48.685Z,18.50
2018-09-06T02:49:24.930Z,18.40
2018-09-06T02:51:57.157Z,18.40
2018-09-06T02:54:29.744Z,18.40
2018-09-06T02:57:02.603Z,18.30
2018-09-06T02:59:36.677Z,18.30
2018-09-06T03:02:09.164Z,18.20
2018-09-06T03:04:41.875Z,18.20
2018-09-06T03:07:15.847Z,18.20
2018-09-06T03:09:48.118Z,18.20
2018-09-06T03:12:17.972Z,18.20
2018-09-06T03:14:46.762Z,18.10
2018-09-06T03:17:15.510Z,18.10
2018-09-06T03:19:44.223Z,18.20
2018-09-06T03:22:12.872Z,18.10
2018-09-06T03:24:41.576Z,18.10
2018-09-06T03:27:10.313Z,18.20
2018-09-06T03:29:38.961Z,18.20
2018-09-06T03:32:07.673Z,18.20
2018-09-06T03:34:36.514Z,18.20
2018-09-06T03:37:05.193Z,18.20
2018-09-06T03:39:33.909Z,18.10
2018-09-06T03:42:02.706Z,18.00
2018-09-06T03:44:31.419Z,18.00
2018-09-06T03:47:00.204Z,17.90
2018-09-06T03:49:28.954Z,17.90
2018-09-06T03:51:57.686Z,17.80
2018-09-06T03:54:26.457Z,17.60
2018-09-06T03:56:55.253Z,17.70
2018-09-06T03:59:23.962Z,17.60
2018-09-06T04:01:52.621Z,17.80
2018-09-06T04:04:21.356Z,17.80
2018-09-06T04:06:50.041Z,17.80
2018-09-06T04:09:18.777Z,17.80
2018-09-06T04:11:47.504Z,17.90
2018-09-06T04:14:16.250Z,17.80
2018-09-06T04:16:45.095Z,17.90
2018-09-06T04:19:13.760Z,17.90
2018-09-06T04:21:42.422Z,17.80
2018-09-06T04:24:11.246Z,17.80
2018-09-06T04:26:39.942Z,17.80
2018-09-06T04:29:08.717Z,17.80
2018-09-06T04:31:37.372Z,17.80
2018-09-06T04:34:06.211Z,17.80
2018-09-06T04:36:34.962Z,17.70
2018-09-06T04:39:04.423Z,17.70
2018-09-06T04:41:33.162Z,17.70
2018-09-06T04:44:01.956Z,17.80
2018-09-06T04:46:30.625Z,17.80
2018-09-06T04:48:59.314Z,17.90
2018-09-06T04:51:28.005Z,17.80
2018-09-06T04:53:56.757Z,17.70
2018-09-06T04:56:25.455Z,17.80
2018-09-06T04:58:54.278Z,17.80
2018-09-06T05:01:23.022Z,17.80
2018-09-06T05:03:52.649Z,17.90
2018-09-06T05:06:21.358Z,17.90
2018-09-06T05:08:50.149Z,17.80
2018-09-06T05:11:18.953Z,17.70
2018-09-06T05:13:47.707Z,17.80
2018-09-06T05:16:16.428Z,17.80
2018-09-06T05:18:45.167Z,17.90
2018-09-06T05:21:13.875Z,17.90
2018-09-06T05:23:42.601Z,18.00
2018-09-06T05:26:11.330Z,18.00
2018-09-06T05:28:40.036Z,17.90
2018-09-06T05:31:08.817Z,18.10
2018-09-06T05:33:37.542Z,18.10
2018-09-06T05:36:06.273Z,18.20
2018-09-06T05:38:34.971Z,18.20
2018-09-06T05:41:03.711Z,18.30
2018-09-06T05:43:32.496Z,18.40
2018-09-06T05:46:01.228Z,18.50
2018-09-06T05:48:29.952Z,18.50
2018-09-06T05:50:58.746Z,18.50
2018-09-06T05:53:27.797Z,18.60
2018-09-06T05:55:56.637Z,18.60
2018-09-06T05:58:25.409Z,18.70
2018-09-06T06:00:54.159Z,18.70
2018-09-06T06:03:23.033Z,18.60
2018-09-06T06:05:51.794Z,18.60
2018-09-06T06:08:31.743Z,18.60
2018-09-06T06:11:00.501Z,18.70
2018-09-06T06:13:29.224Z,18.80
2018-09-06T06:15:58.048Z,18.90
2018-09-06T06:18:26.798Z,19.00
2018-09-06T06:20:55.617Z,19.00
2018-09-06T06:23:24.319Z,19.00
2018-09-06T06:25:53.050Z,19.00
2018-09-06T06:28:22.141Z,19.10
2018-09-06T06:30:50.808Z,19.20
2018-09-06T06:33:19.547Z,19.20
2018-09-06T06:35:48.225Z,19.20
2018-09-06T06:38:16.975Z,19.20
2018-09-06T06:40:45.659Z,19.30
2018-09-06T06:43:14.516Z,19.40
2018-09-06T06:45:43.494Z,19.40
2018-09-06T06:48:12.601Z,19.40
2018-09-06T06:50:42.269Z,19.50
2018-09-06T06:53:12.326Z,19.60
2018-09-06T06:55:41.826Z,19.70
2018-09-06T06:58:11.732Z,19.70
2018-09-06T07:00:41.845Z,19.90
2018-09-06T07:03:12.332Z,20.00
2018-09-06T07:05:41.840Z,20.30
2018-09-06T07:08:11.205Z,20.40
2018-09-06T07:10:40.245Z,20.60
2018-09-06T07:13:09.643Z,20.60
2018-09-06T07:15:48.379Z,20.60
2018-09-06T07:18:18.245Z,20.70
2018-09-06T07:20:46.993Z,20.80
2018-09-06T07:23:15.847Z,20.90
2018-09-06T07:25:44.632Z,21.00
2018-09-06T07:28:13.395Z,21.30
2018-09-06T07:30:42.179Z,21.50
2018-09-06T07:33:10.891Z,21.60
2018-09-06T07:35:41.817Z,21.90
2018-09-06T07:38:28.429Z,22.10
2018-09-06T07:40:58.253Z,22.00
2018-09-06T07:43:28.093Z,22.10
2018-09-06T07:45:56.926Z,22.10
2018-09-06T07:48:25.708Z,22.20
2018-09-06T07:50:54.453Z,22.60
2018-09-06T07:53:23.170Z,23.00
2018-09-06T07:55:51.893Z,23.10
2018-09-06T07:58:20.602Z,23.30
2018-09-06T08:00:49.325Z,23.60
2018-09-06T08:03:18.153Z,24.00
2018-09-06T08:05:46.943Z,24.00
2018-09-06T08:08:15.767Z,24.00
2018-09-06T08:10:44.468Z,24.20
2018-09-06T08:13:13.336Z,24.40
2018-09-06T08:15:42.046Z,24.50
2018-09-06T08:18:10.904Z,24.80
2018-09-06T08:20:39.781Z,25.00
2018-09-06T08:23:08.580Z,25.10
2018-09-06T08:25:37.535Z,24.90
2018-09-06T08:28:07.283Z,24.80
2018-09-06T08:30:36.313Z,24.90
2018-09-06T08:33:05.528Z,25.10
2018-09-06T08:35:34.318Z,25.20
2018-09-06T08:38:03.049Z,25.30
2018-09-06T08:40:31.839Z,25.20
2018-09-06T08:43:00.560Z,25.40
2018-09-06T08:45:29.433Z,25.40
2018-09-06T08:47:58.300Z,25.60
2018-09-06T08:50:27.132Z,25.90
2018-09-06T08:52:56.081Z,25.90
2018-09-06T08:55:25.002Z,25.70
2018-09-06T08:57:53.934Z,25.70
2018-09-06T09:00:22.702Z,25.50
2018-09-06T09:02:51.693Z,25.50
2018-09-06T09:05:20.630Z,25.60
2018-09-06T09:07:49.353Z,25.40
2018-09-06T09:10:18.288Z,25.60
2018-09-06T09:12:47.028Z,25.90
2018-09-06T09:15:15.874Z,26.00
2018-09-06T09:17:44.584Z,26.20
2018-09-06T09:20:13.345Z,26.30
2018-09-06T09:22:42.140Z,26.20
2018-09-06T09:25:10.918Z,26.00
2018-09-06T09:27:44.822Z,26.20
2018-09-06T09:30:14.178Z,26.20
2018-09-06T09:32:43.161Z,26.40
2018-09-06T09:35:12.015Z,26.20
2018-09-06T09:37:40.860Z,26.60
2018-09-06T09:40:09.664Z,27.00
2018-09-06T09:42:38.612Z,26.80
2018-09-06T09:45:07.412Z,26.90
2018-09-06T09:50:05.019Z,27.80
2018-09-06T09:52:34.893Z,28.00
2018-09-06T09:55:03.663Z,28.10
2018-09-06T09:57:32.401Z,27.90
2018-09-06T10:00:01.297Z,27.90
2018-09-06T10:02:36.701Z,28.70
2018-09-06T10:05:10.762Z,29.10
2018-09-06T10:07:45.462Z,29.20
2018-09-06T10:10:14.329Z,28.70
2018-09-06T10:12:43.242Z,29.20
2018-09-06T10:15:12.249Z,30.10
2018-09-06T10:17:41.032Z,30.40
2018-09-06T10:20:09.804Z,31.20
2018-09-06T10:22:38.961Z,32.60
2018-09-06T10:25:07.806Z,34.00
2018-09-06T10:27:36.690Z,34.80
2018-09-06T10:30:05.736Z,34.00
2018-09-06T10:32:34.571Z,32.50
2018-09-06T10:35:03.438Z,32.30
2018-09-06T10:37:32.372Z,32.60
2018-09-06T10:40:01.170Z,32.60
2018-09-06T10:42:29.886Z,33.30
2018-09-06T10:44:59.397Z,34.40
2018-09-06T10:47:28.195Z,34.90
2018-09-06T10:49:56.933Z,34.00
2018-09-06T10:52:25.697Z,32.80
2018-09-06T10:54:54.476Z,33.70
2018-09-06T10:57:23.257Z,35.20
2018-09-06T10:59:52.258Z,36.30
2018-09-06T11:02:21.164Z,37.00
2018-09-06T11:04:50.443Z,37.80
2018-09-06T11:07:19.346Z,39.20
2018-09-06T11:09:48.094Z,39.60
2018-09-06T11:12:16.888Z,39.90
2018-09-06T11:14:45.709Z,40.90
2018-09-06T11:17:14.513Z,39.40
2018-09-06T11:19:43.203Z,38.70
2018-09-06T11:22:12.618Z,37.80
2018-09-06T11:24:41.162Z,38.70
2018-09-06T11:27:09.907Z,39.60
2018-09-06T11:29:45.244Z,40.20
2018-09-06T11:32:21.690Z,40.40
2018-09-06T11:34:50.809Z,38.30
2018-09-06T11:37:19.735Z,36.20
2018-09-06T11:39:48.577Z,33.80
2018-09-06T11:42:17.689Z,33.50
2018-09-06T11:44:47.535Z,33.10
2018-09-06T11:47:16.503Z,32.20
2018-09-06T11:49:45.228Z,31.80
2018-09-06T11:52:14.017Z,31.50
2018-09-06T11:54:42.863Z,30.90
2018-09-06T11:57:11.828Z,30.70
2018-09-06T11:59:40.592Z,30.40
2018-09-06T12:02:10.058Z,30.20
2018-09-06T12:04:38.990Z,29.90
2018-09-06T12:07:07.809Z,29.70
2018-09-06T12:09:36.573Z,29.40
2018-09-06T12:12:05.417Z,29.20
2018-09-06T12:14:34.153Z,29.00
2018-09-06T12:17:03.000Z,28.60
2018-09-06T12:19:31.702Z,28.50
2018-09-06T12:22:00.587Z,28.30
2018-09-06T12:24:29.388Z,28.40
2018-09-06T12:26:58.209Z,28.30
2018-09-06T12:29:27.045Z,28.50
2018-09-06T12:31:55.991Z,28.20
2018-09-06T12:34:24.775Z,28.10
2018-09-06T12:36:53.481Z,28.20
2018-09-06T12:39:22.286Z,28.30
2018-09-06T12:41:51.179Z,28.20
2018-09-06T12:44:19.964Z,28.10
2018-09-06T12:46:48.716Z,27.90
2018-09-06T12:49:17.570Z,27.70
2018-09-06T12:51:46.400Z,27.70
2018-09-06T12:54:15.556Z,27.70
2018-09-06T12:56:45.242Z,27.80
2018-09-06T12:59:14.208Z,27.90
2018-09-06T13:01:44.465Z,28.00
2018-09-06T13:04:13.441Z,28.00
2018-09-06T13:06:42.264Z,28.00
2018-09-06T13:09:10.981Z,28.10
2018-09-06T13:11:39.922Z,28.00
2018-09-06T13:14:08.718Z,28.30
2018-09-06T13:16:37.603Z,28.30
2018-09-06T13:19:06.501Z,28.20
2018-09-06T13:21:35.312Z,28.30
2018-09-06T13:24:04.098Z,28.40
2018-09-06T13:26:32.884Z,28.50
2018-09-06T13:29:01.640Z,28.60
2018-09-06T13:31:30.589Z,28.60
2018-09-06T13:33:59.302Z,28.80
2018-09-06T13:36:28.243Z,28.90
2018-09-06T13:38:57.219Z,29.00
2018-09-06T13:41:26.021Z,28.90
2018-09-06T13:43:54.813Z,28.80
2018-09-06T13:46:23.834Z,28.80
2018-09-06T13:48:52.579Z,29.10
2018-09-06T13:51:21.513Z,29.10
2018-09-06T13:53:50.342Z,29.00
2018-09-06T13:56:19.203Z,28.90
2018-09-06T13:58:47.986Z,28.80
2018-09-06T14:01:16.903Z,29.90
2018-09-06T14:03:45.713Z,28.60
2018-09-06T14:06:14.654Z,28.60
2018-09-06T14:08:43.495Z,28.80
2018-09-06T14:11:12.370Z,28.60
2018-09-06T14:13:41.167Z,28.50
2018-09-06T14:16:10.050Z,28.40
2018-09-06T14:18:38.942Z,28.40
2018-09-06T14:21:07.782Z,28.20
2018-09-06T14:23:36.695Z,28.10
2018-09-06T14:26:05.751Z,28.00
2018-09-06T14:28:34.624Z,27.90
2018-09-06T14:31:03.749Z,27.80
2018-09-06T14:33:33.254Z,27.80
2018-09-06T14:36:02.128Z,27.90
2018-09-06T14:38:31.058Z,28.00
2018-09-06T14:40:59.777Z,28.10
2018-09-06T14:43:28.625Z,28.20
2018-09-06T14:45:57.435Z,28.30
2018-09-06T14:48:27.971Z,28.10
2018-09-06T14:50:56.789Z,27.90
2018-09-06T14:53:25.450Z,27.80
2018-09-06T14:55:54.384Z,27.80
2018-09-06T14:58:23.165Z,27.80
2018-09-06T15:00:51.959Z,27.90
2018-09-06T15:03:20.714Z,28.00
2018-09-06T15:05:49.566Z,28.10
2018-09-06T15:08:18.330Z,27.90
2018-09-06T15:10:47.355Z,27.90
2018-09-06T15:13:16.120Z,27.90
2018-09-06T15:15:44.922Z,27.90
2018-09-06T15:18:13.665Z,27.80
2018-09-06T15:20:42.332Z,27.80
2018-09-06T15:23:11.151Z,27.80
2018-09-06T15:25:40.042Z,27.80
2018-09-06T15:28:08.798Z,27.80
2018-09-06T15:30:39.764Z,27.70
2018-09-06T15:33:08.557Z,27.60
2018-09-06T15:35:38.507Z,27.50
2018-09-06T15:38:07.805Z,27.30
2018-09-06T15:40:36.561Z,27.30
2018-09-06T15:43:05.428Z,27.30
2018-09-06T15:45:34.393Z,27.30
2018-09-06T15:48:03.141Z,29.60
2018-09-06T15:50:31.930Z,27.20
2018-09-06T15:53:00.721Z,27.20
2018-09-06T15:55:29.482Z,27.20
2018-09-06T15:57:58.271Z,27.10
2018-09-06T16:00:27.136Z,26.90
2018-09-06T16:02:55.851Z,26.90
2018-09-06T16:05:24.655Z,26.70
2018-09-06T16:07:53.456Z,26.60
2018-09-06T16:10:22.157Z,26.20
2018-09-06T16:12:50.925Z,26.00
2018-09-06T16:15:19.827Z,25.90
2018-09-06T16:17:48.704Z,25.80
2018-09-06T16:20:17.487Z,25.50
2018-09-06T16:22:46.726Z,25.30
2018-09-06T16:25:15.775Z,25.10
2018-09-06T16:27:44.606Z,24.90
2018-09-06T16:30:13.525Z,24.70
2018-09-06T16:32:42.300Z,24.30
2018-09-06T16:35:11.041Z,23.90
2018-09-06T16:37:39.785Z,23.60
2018-09-06T16:40:08.531Z,23.30
2018-09-06T16:42:37.349Z,23.10
2018-09-06T16:45:06.059Z,23.20
2018-09-06T16:47:34.896Z,23.00
2018-09-06T16:50:03.707Z,22.70
2018-09-06T16:52:32.664Z,22.50
2018-09-06T16:55:01.432Z,22.20
2018-09-06T16:57:30.103Z,21.80
2018-09-06T16:59:58.913Z,21.50
2018-09-06T17:02:27.635Z,21.30
2018-09-06T17:04:56.470Z,21.00
2018-09-06T17:07:25.321Z,20.90
2018-09-06T17:09:54.142Z,21.00
2018-09-06T17:12:22.971Z,21.00
2018-09-06T17:14:51.768Z,21.10
2018-09-06T17:17:20.541Z,21.20
2018-09-06T17:19:49.283Z,21.00
2018-09-06T17:22:17.988Z,21.10
2018-09-06T17:24:46.807Z,21.10
2018-09-06T17:27:15.518Z,21.20
2018-09-06T17:29:44.210Z,21.30
2018-09-06T17:32:12.942Z,21.40
2018-09-06T17:34:41.782Z,21.40
2018-09-06T17:37:10.449Z,21.30
2018-09-06T17:39:39.191Z,20.90
2018-09-06T17:42:07.924Z,21.30
2018-09-06T17:44:36.632Z,21.20
2018-09-06T17:47:05.560Z,21.10
2018-09-06T17:49:34.329Z,21.00
2018-09-06T17:52:03.105Z,20.90
2018-09-06T17:54:31.909Z,20.90
2018-09-06T17:57:00.641Z,20.90
2018-09-06T17:59:29.369Z,20.80
2018-09-06T18:01:58.207Z,20.60
2018-09-06T18:04:27.032Z,20.50
2018-09-06T18:06:55.837Z,20.40
2018-09-06T18:09:24.624Z,20.40
2018-09-06T18:11:53.418Z,20.40
2018-09-06T18:14:22.154Z,20.40
2018-09-06T18:16:50.877Z,20.40
2018-09-06T18:19:19.670Z,20.40
2018-09-06T18:21:48.396Z,20.50
2018-09-06T18:24:17.161Z,20.60
2018-09-06T18:26:45.870Z,20.70
2018-09-06T18:29:14.661Z,20.60
2018-09-06T18:31:43.519Z,20.50
2018-09-06T18:34:12.249Z,20.60
2018-09-06T18:36:40.932Z,20.50
2018-09-06T18:39:09.681Z,20.50
2018-09-06T18:41:38.401Z,20.20
2018-09-06T18:44:07.222Z,20.10
2018-09-06T18:46:35.970Z,20.10
2018-09-06T18:49:04.702Z,20.10
2018-09-06T18:51:33.519Z,19.90
2018-09-06T18:54:02.240Z,20.00
2018-09-06T18:56:31.036Z,20.10
2018-09-06T18:58:59.777Z,20.00
2018-09-06T19:01:28.465Z,20.00
2018-09-06T19:03:57.207Z,20.00
2018-09-06T19:06:25.904Z,19.90
2018-09-06T19:08:54.726Z,19.90
2018-09-06T19:11:23.505Z,20.00
2018-09-06T19:13:52.238Z,20.00
2018-09-06T19:16:21.075Z,20.00
2018-09-06T19:18:49.884Z,19.90
2018-09-06T19:21:18.622Z,20.00
2018-09-06T19:23:47.352Z,20.00
2018-09-06T19:26:16.205Z,20.00
2018-09-06T19:28:44.942Z,19.80
2018-09-06T19:31:13.793Z,19.70
2018-09-06T19:33:42.549Z,19.70
2018-09-06T19:36:11.305Z,19.70
2018-09-06T19:38:40.728Z,19.60
2018-09-06T19:41:09.480Z,19.40
2018-09-06T19:43:38.224Z,19.20
2018-09-06T19:46:07.198Z,19.20
2018-09-06T19:48:35.877Z,19.20
2018-09-06T19:51:04.695Z,19.20
2018-09-06T19:53:33.441Z,19.20
2018-09-06T19:56:02.140Z,19.20
2018-09-06T19:58:30.856Z,19.30
2018-09-06T20:00:59.611Z,19.20
2018-09-06T20:03:32.691Z,19.30
2018-09-06T20:06:03.639Z,19.20
2018-09-06T20:08:32.309Z,19.20
2018-09-06T20:11:00.992Z,19.20
2018-09-06T20:13:29.690Z,19.10
2018-09-06T20:15:58.509Z,19.10
2018-09-06T20:18:27.291Z,19.00
2018-09-06T20:20:56.058Z,19.00
2018-09-06T20:23:24.796Z,19.10
2018-09-06T20:25:53.608Z,19.10
2018-09-06T20:28:22.354Z,19.10
2018-09-06T20:30:51.169Z,19.30
2018-09-06T20:33:19.881Z,19.20
2018-09-06T20:35:48.676Z,19.20
2018-09-06T20:38:17.434Z,19.30
2018-09-06T20:40:46.176Z,19.20
2018-09-06T20:43:15.000Z,19.20
2018-09-06T20:45:43.737Z,19.20
2018-09-06T20:48:12.602Z,19.20
2018-09-06T20:50:41.411Z,19.20
2018-09-06T20:53:10.209Z,19.20
2018-09-06T20:55:38.958Z,19.30
2018-09-06T20:58:07.719Z,19.20
2018-09-06T21:00:36.491Z,19.20
2018-09-06T21:03:05.274Z,19.20
2018-09-06T21:05:34.133Z,19.20
2018-09-06T21:08:02.857Z,19.20
2018-09-06T21:10:31.688Z,19.20
2018-09-06T21:13:00.484Z,19.10
2018-09-06T21:15:29.221Z,19.20
2018-09-06T21:17:57.949Z,19.20
2018-09-06T21:20:26.657Z,19.20
2018-09-06T21:22:55.550Z,19.20
2018-09-06T21:25:24.325Z,19.20
2018-09-06T21:27:53.029Z,19.20
2018-09-06T21:30:21.992Z,19.20
2018-09-06T21:32:50.772Z,19.30
2018-09-06T21:35:19.549Z,19.30
2018-09-06T21:37:48.346Z,19.30
2018-09-06T21:40:17.042Z,19.20
2018-09-06T21:42:45.782Z,19.20
2018-09-06T21:45:14.533Z,19.20
2018-09-06T21:47:43.352Z,19.20
2018-09-06T21:50:12.059Z,19.20
2018-09-06T21:52:40.837Z,19.20
2018-09-06T21:55:09.704Z,19.20
2018-09-06T21:57:38.457Z,19.30
2018-09-06T22:00:07.461Z,19.10
2018-09-06T22:02:41.353Z,19.10
2018-09-06T22:05:10.186Z,19.20
2018-09-06T22:07:38.867Z,19.20
2018-09-06T22:10:07.647Z,19.10
2018-09-06T22:12:36.409Z,19.10
2018-09-06T22:15:05.154Z,19.10
2018-09-06T22:17:34.127Z,19.10
2018-09-06T22:20:03.000Z,19.20
2018-09-06T22:22:31.772Z,19.10
2018-09-06T22:25:00.479Z,19.00
2018-09-06T22:27:29.215Z,19.10
2018-09-06T22:29:58.012Z,19.20
2018-09-06T22:32:26.821Z,19.20
2018-09-06T22:34:55.633Z,19.20
2018-09-06T22:37:24.454Z,19.20
2018-09-06T22:39:53.209Z,19.20
2018-09-06T22:42:21.929Z,19.20
2018-09-06T22:44:50.833Z,19.20
2018-09-06T22:47:20.278Z,19.20
2018-09-06T22:49:49.043Z,19.10
2018-09-06T22:52:17.829Z,19.10
2018-09-06T22:54:46.505Z,19.00
2018-09-06T22:57:15.304Z,19.00
2018-09-06T22:59:44.087Z,19.10
2018-09-06T23:02:12.810Z,19.10
2018-09-06T23:04:41.540Z,19.10
2018-09-06T23:07:10.368Z,19.10
2018-09-06T23:09:39.101Z,19.10
2018-09-06T23:12:07.801Z,19.10
2018-09-06T23:14:36.491Z,19.10
2018-09-06T23:17:05.251Z,19.00
2018-09-06T23:19:33.974Z,19.10
2018-09-06T23:22:02.718Z,19.10
2018-09-06T23:24:31.434Z,19.00
2018-09-06T23:27:00.257Z,18.90
2018-09-06T23:29:29.032Z,18.90
2018-09-06T23:31:57.735Z,18.80
2018-09-06T23:34:30.356Z,18.70
2018-09-06T23:36:59.085Z,18.60
2018-09-06T23:39:27.805Z,18.70
2018-09-06T23:41:56.502Z,18.70
2018-09-06T23:44:25.270Z,18.70
2018-09-06T23:46:54.026Z,18.70
2018-09-06T23:49:22.809Z,18.70
2018-09-06T23:51:51.630Z,18.70
2018-09-06T23:54:20.426Z,18.60
2018-09-06T23:56:49.208Z,18.60
2018-09-06T23:59:17.890Z,18.50
